Time;durP1;ratioP1;P1;durP2;ratioP2;P2;SDS_P1;SDS_P2;PMS_P1;PMS_P2;Temp;Humidity;BMP_temperature;BMP_pressure;BME280_temperature;BME280_humidity;BME280_pressure;Samples;Min_cycle;Max_cycle;Signal;HPM_P1;HPM_P2
2021/03/30 00:00:51;;;;;;;8.50;3.93;;;10.00;57.70;;;;;;5062209;28;20187;-71
2021/03/30 00:03:17;;;;;;;7.10;4.43;;;9.90;58.10;;;;;;5074566;28;20422;-71
2021/03/30 00:05:43;;;;;;;8.10;4.20;;;9.90;58.70;;;;;;5073531;28;20446;-72
2021/03/30 00:08:09;;;;;;;5.30;3.80;;;9.80;59.20;;;;;;5068211;28;20434;-72
2021/03/30 00:10:39;;;;;;;7.40;4.00;;;9.80;59.70;;;;;;5069429;28;20188;-71
2021/03/30 00:13:06;;;;;;;9.83;4.00;;;9.70;60.00;;;;;;5071142;28;20460;-70
2021/03/30 00:15:32;;;;;;;6.27;3.87;;;9.70;60.40;;;;;;5071379;28;20446;-70
2021/03/30 00:17:58;;;;;;;10.40;3.90;;;9.70;60.60;;;;;;5071692;28;20437;-70
2021/03/30 00:20:24;;;;;;;7.57;4.07;;;9.70;60.70;;;;;;5071202;28;20838;-70
2021/03/30 00:22:50;;;;;;;7.53;4.13;;;9.70;60.40;;;;;;5070649;28;20187;-73
2021/03/30 00:25:16;;;;;;;9.10;3.80;;;9.70;60.00;;;;;;5071428;28;20488;-70
2021/03/30 00:27:42;;;;;;;8.60;4.33;;;9.70;59.90;;;;;;5071573;28;20449;-72
2021/03/30 00:30:10;;;;;;;5.60;3.60;;;9.60;60.00;;;;;;5070003;28;20461;-72
2021/03/30 00:32:36;;;;;;;10.10;3.60;;;9.60;60.90;;;;;;5071420;28;20505;-72
2021/03/30 00:35:03;;;;;;;7.10;4.17;;;9.60;60.70;;;;;;5070769;28;20438;-72
2021/03/30 00:37:29;;;;;;;8.13;4.53;;;9.50;60.70;;;;;;5070135;28;20461;-70
2021/03/30 00:39:55;;;;;;;8.90;3.87;;;9.50;61.00;;;;;;5071485;28;20496;-70
2021/03/30 00:42:21;;;;;;;5.77;3.80;;;9.50;60.90;;;;;;5072248;28;20907;-70
2021/03/30 00:44:48;;;;;;;6.30;3.70;;;9.60;61.00;;;;;;5074254;28;20774;-72
2021/03/30 00:47:15;;;;;;;11.80;4.13;;;9.50;61.70;;;;;;5078541;28;20482;-72
2021/03/30 00:49:42;;;;;;;6.33;4.03;;;9.50;62.80;;;;;;5072918;28;20418;-71
2021/03/30 00:52:10;;;;;;;6.37;4.00;;;9.60;62.90;;;;;;5072033;28;21053;-72
2021/03/30 00:54:37;;;;;;;7.80;4.00;;;9.50;62.90;;;;;;5070891;28;20426;-72
2021/03/30 00:57:04;;;;;;;5.83;3.50;;;9.50;62.60;;;;;;5070829;28;20457;-71
2021/03/30 00:59:30;;;;;;;11.60;3.70;;;9.50;63.70;;;;;;5069094;28;20545;-71
2021/03/30 01:01:58;;;;;;;6.43;3.47;;;9.60;63.50;;;;;;5070633;28;20450;-73
2021/03/30 01:04:24;;;;;;;5.27;3.60;;;9.50;62.90;;;;;;5070267;28;20421;-72
2021/03/30 01:06:50;;;;;;;10.67;3.67;;;9.50;62.90;;;;;;5070272;28;20843;-73
2021/03/30 01:09:32;;;;;;;6.07;3.37;;;9.50;63.40;;;;;;5070949;28;20805;-71
2021/03/30 01:12:07;;;;;;;5.17;3.43;;;9.50;63.90;;;;;;5069588;28;20457;-74
2021/03/30 01:14:57;;;;;;;8.60;4.07;;;9.50;63.90;;;;;;5070570;28;20428;-71
2021/03/30 01:17:33;;;;;;;8.07;3.67;;;9.50;63.70;;;;;;5069781;28;20434;-72
2021/03/30 01:20:41;;;;;;;5.30;3.47;;;9.40;63.70;;;;;;5071027;28;20501;-72
2021/03/30 01:23:28;;;;;;;6.17;3.90;;;9.30;61.90;;;;;;5069826;28;20438;-73
2021/03/30 01:26:17;;;;;;;6.83;4.10;;;9.20;61.30;;;;;;5070799;28;20974;-72
2021/03/30 01:29:12;;;;;;;6.80;3.53;;;9.10;61.70;;;;;;5074225;28;20856;-72
2021/03/30 01:31:45;;;;;;;8.13;4.27;;;9.20;61.60;;;;;;5070940;28;20429;-73
2021/03/30 01:34:13;;;;;;;8.10;3.57;;;9.10;61.70;;;;;;5070394;28;20430;-73
2021/03/30 01:36:41;;;;;;;6.17;3.90;;;9.00;62.50;;;;;;5068713;28;20511;-73
2021/03/30 01:39:09;;;;;;;9.97;3.90;;;8.90;62.60;;;;;;5070224;28;20553;-74
2021/03/30 01:41:37;;;;;;;8.07;4.23;;;8.80;63.40;;;;;;5070576;28;20511;-74
2021/03/30 01:44:05;;;;;;;6.23;3.23;;;8.80;63.70;;;;;;5070372;28;20454;-71
2021/03/30 01:46:32;;;;;;;7.73;4.57;;;8.80;64.20;;;;;;5069394;28;20434;-71
2021/03/30 01:48:59;;;;;;;6.97;3.90;;;8.80;64.10;;;;;;5069924;28;20437;-71
2021/03/30 01:51:25;;;;;;;5.90;3.83;;;8.90;62.90;;;;;;5069987;28;20504;-71
2021/03/30 01:53:53;;;;;;;7.83;3.63;;;8.90;63.10;;;;;;5066770;28;20482;-74
2021/03/30 01:56:20;;;;;;;7.90;3.70;;;8.80;63.40;;;;;;5069727;28;20453;-73
2021/03/30 01:58:47;;;;;;;8.87;3.83;;;8.80;64.10;;;;;;5070668;28;20469;-73
2021/03/30 02:01:17;;;;;;;7.17;3.40;;;8.80;65.40;;;;;;5056705;28;20897;-73
2021/03/30 02:03:44;;;;;;;6.07;3.10;;;8.70;66.10;;;;;;5064225;28;20448;-71
2021/03/30 02:06:10;;;;;;;6.17;3.60;;;8.70;66.00;;;;;;5069530;28;20450;-73
2021/03/30 02:08:37;;;;;;;6.00;3.53;;;8.70;65.60;;;;;;5067642;28;20436;-73
2021/03/30 02:11:03;;;;;;;5.83;3.73;;;8.70;64.70;;;;;;5069949;28;20453;-70
2021/03/30 02:16:17;;;;;;;5.53;3.10;;;8.60;64.20;;;;;;5069255;28;20453;-72
2021/03/30 02:19:12;;;;;;;9.03;3.80;;;8.50;64.70;;;;;;5064938;28;20600;-71
2021/03/30 02:21:44;;;;;;;9.90;4.17;;;8.50;65.00;;;;;;5022296;28;20436;-71
2021/03/30 02:24:12;;;;;;;6.03;3.60;;;8.50;64.80;;;;;;5026492;28;20761;-71
2021/03/30 02:26:42;;;;;;;7.80;4.27;;;8.50;64.50;;;;;;4998702;28;20538;-72
2021/03/30 02:29:16;;;;;;;10.27;4.10;;;8.40;64.70;;;;;;5010604;28;20445;-73
2021/03/30 02:31:43;;;;;;;6.97;3.40;;;8.40;65.00;;;;;;5018729;28;20428;-70
2021/03/30 02:34:11;;;;;;;5.10;3.20;;;8.30;65.40;;;;;;5000896;28;20419;-71
2021/03/30 02:36:38;;;;;;;8.40;3.90;;;8.30;65.30;;;;;;5013790;28;20451;-72
2021/03/30 02:39:10;;;;;;;8.23;4.20;;;8.20;65.40;;;;;;5014655;28;20472;-71
2021/03/30 02:41:37;;;;;;;8.37;3.90;;;8.20;65.40;;;;;;5023194;28;20427;-72
2021/03/30 02:44:06;;;;;;;9.63;4.57;;;8.20;65.60;;;;;;5014113;28;20433;-71
2021/03/30 02:46:34;;;;;;;7.10;3.90;;;8.20;65.40;;;;;;5007924;28;20449;-73
2021/03/30 02:49:00;;;;;;;6.30;3.60;;;8.20;66.10;;;;;;5008148;28;20432;-75
2021/03/30 02:51:28;;;;;;;5.40;3.60;;;8.20;66.70;;;;;;4998506;28;20435;-72
2021/03/30 02:53:55;;;;;;;5.67;3.70;;;8.20;67.30;;;;;;5012650;28;20428;-73
2021/03/30 02:56:22;;;;;;;6.30;3.90;;;8.20;67.60;;;;;;5009575;28;20452;-71
2021/03/30 02:58:51;;;;;;;8.93;4.10;;;8.10;68.30;;;;;;5052584;28;20470;-72
2021/03/30 03:01:18;;;;;;;8.93;4.07;;;8.10;68.90;;;;;;5055989;28;20414;-73
2021/03/30 03:03:45;;;;;;;6.93;3.93;;;8.10;69.10;;;;;;5067633;28;20422;-71
2021/03/30 03:06:12;;;;;;;9.00;4.40;;;8.00;68.90;;;;;;5068545;28;20472;-72
2021/03/30 03:08:39;;;;;;;7.23;4.10;;;8.00;68.00;;;;;;5065525;28;20435;-70
2021/03/30 03:11:07;;;;;;;7.57;3.47;;;8.10;67.50;;;;;;5069257;28;20422;-71
2021/03/30 03:13:34;;;;;;;7.87;3.77;;;8.00;67.20;;;;;;5070900;28;20432;-70
2021/03/30 03:16:00;;;;;;;8.87;4.00;;;7.90;67.50;;;;;;5074441;28;20493;-70
2021/03/30 03:18:26;;;;;;;6.33;4.00;;;7.90;67.00;;;;;;5071387;28;20422;-73
2021/03/30 03:20:53;;;;;;;9.77;4.10;;;7.90;67.00;;;;;;5073250;28;20797;-72
2021/03/30 03:23:19;;;;;;;7.83;3.40;;;7.90;66.90;;;;;;5071179;28;20783;-72
2021/03/30 03:25:45;;;;;;;6.87;4.07;;;7.80;67.20;;;;;;5072431;28;20601;-71
2021/03/30 03:28:12;;;;;;;10.50;4.00;;;7.70;67.70;;;;;;5072573;28;20980;-73
2021/03/30 03:30:41;;;;;;;10.17;3.70;;;7.70;68.00;;;;;;5072673;28;20499;-72
2021/03/30 03:33:14;;;;;;;7.53;3.40;;;7.70;68.50;;;;;;5072893;28;20453;-72
2021/03/30 03:35:41;;;;;;;12.10;4.70;;;7.60;69.40;;;;;;5072208;28;21177;-72
2021/03/30 03:38:07;;;;;;;8.53;3.97;;;7.60;70.10;;;;;;5073491;28;20521;-71
2021/03/30 03:40:33;;;;;;;9.13;4.37;;;7.60;70.50;;;;;;5072302;28;21221;-73
2021/03/30 03:43:00;;;;;;;13.80;5.17;;;7.60;70.50;;;;;;5072952;28;20576;-72
2021/03/30 03:45:26;;;;;;;9.53;4.83;;;7.60;69.90;;;;;;5072064;28;20520;-71
2021/03/30 03:47:52;;;;;;;8.10;4.37;;;7.60;70.50;;;;;;5072660;28;20830;-72
2021/03/30 03:50:19;;;;;;;10.90;4.23;;;7.70;69.90;;;;;;5072356;28;20188;-73
2021/03/30 03:52:49;;;;;;;13.43;4.73;;;7.70;69.10;;;;;;5071972;28;20450;-73
2021/03/30 03:55:17;;;;;;;9.80;4.20;;;7.70;68.60;;;;;;5087359;28;20536;-72
2021/03/30 03:57:57;;;;;;;11.93;4.57;;;7.70;70.10;;;;;;5073092;28;20504;-73
2021/03/30 04:00:24;;;;;;;9.23;4.90;;;7.70;68.80;;;;;;5058302;28;20466;-72
2021/03/30 04:03:14;;;;;;;10.30;4.90;;;7.70;67.90;;;;;;5072135;28;20819;-72
2021/03/30 04:06:10;;;;;;;7.73;4.17;;;7.70;67.50;;;;;;5071287;28;20781;-72
2021/03/30 04:08:51;;;;;;;9.23;4.70;;;7.80;67.00;;;;;;5072525;28;20422;-72
2021/03/30 04:11:18;;;;;;;10.77;4.97;;;7.80;66.90;;;;;;5073704;28;20432;-73
2021/03/30 04:13:45;;;;;;;10.60;4.57;;;7.80;66.90;;;;;;5071610;28;20422;-73
2021/03/30 04:16:12;;;;;;;13.70;5.23;;;7.70;66.90;;;;;;5071613;28;20437;-72
2021/03/30 04:18:42;;;;;;;8.63;5.17;;;7.70;67.50;;;;;;5073452;28;20956;-72
2021/03/30 04:21:15;;;;;;;10.03;4.33;;;7.80;68.20;;;;;;5073049;28;20513;-71
2021/03/30 04:23:44;;;;;;;7.00;4.57;;;7.80;68.60;;;;;;5073442;28;20964;-71
2021/03/30 04:26:11;;;;;;;11.53;4.77;;;7.80;68.90;;;;;;5072150;28;20437;-72
2021/03/30 04:28:36;;;;;;;13.20;5.27;;;7.80;68.30;;;;;;5070549;28;20428;-72
2021/03/30 04:31:02;;;;;;;7.40;4.13;;;7.70;68.20;;;;;;5070329;28;20430;-71
2021/03/30 04:33:29;;;;;;;9.73;5.07;;;7.70;67.50;;;;;;5071261;28;20188;-72
2021/03/30 04:35:55;;;;;;;9.17;4.57;;;7.70;67.90;;;;;;5066044;28;20465;-71
2021/03/30 04:38:21;;;;;;;10.40;4.77;;;7.70;68.00;;;;;;5068693;28;21008;-72
2021/03/30 04:40:50;;;;;;;10.73;4.97;;;7.70;67.50;;;;;;5070737;28;20469;-70
2021/03/30 04:43:16;;;;;;;10.30;4.80;;;7.70;67.20;;;;;;5069564;28;20457;-71
2021/03/30 04:45:42;;;;;;;10.17;5.07;;;7.70;66.30;;;;;;5070274;28;20945;-72
2021/03/30 04:48:08;;;;;;;8.90;4.33;;;7.70;67.70;;;;;;5071525;28;20188;-70
2021/03/30 04:50:34;;;;;;;13.30;4.70;;;7.70;66.90;;;;;;5071071;28;20187;-71
2021/03/30 04:52:59;;;;;;;13.13;4.60;;;7.70;66.40;;;;;;5071770;28;20522;-70
2021/03/30 04:55:25;;;;;;;9.97;4.27;;;7.70;66.40;;;;;;5067407;28;20212;-70
2021/03/30 04:57:51;;;;;;;9.10;4.80;;;7.60;67.20;;;;;;5071780;28;20226;-70
2021/03/30 05:00:18;;;;;;;7.97;4.80;;;7.50;67.30;;;;;;5059247;28;20212;-70
2021/03/30 05:02:44;;;;;;;8.33;5.13;;;7.50;67.60;;;;;;5071401;28;20271;-70
2021/03/30 05:05:11;;;;;;;7.57;4.93;;;7.50;67.90;;;;;;5071111;28;20438;-70
2021/03/30 05:07:37;;;;;;;8.87;4.87;;;7.50;68.50;;;;;;5072175;28;20854;-71
2021/03/30 05:10:05;;;;;;;11.13;5.10;;;7.50;68.90;;;;;;5071444;28;20426;-72
2021/03/30 05:12:30;;;;;;;8.00;4.80;;;7.50;68.90;;;;;;5072011;28;20486;-72
2021/03/30 05:14:56;;;;;;;9.20;5.60;;;7.40;68.80;;;;;;5070531;28;20446;-72
2021/03/30 05:17:22;;;;;;;8.13;4.37;;;7.40;68.90;;;;;;5058893;28;20322;-71
2021/03/30 05:19:48;;;;;;;13.30;5.53;;;7.40;69.20;;;;;;5071609;28;20242;-70
2021/03/30 05:22:14;;;;;;;8.43;5.40;;;7.40;70.10;;;;;;5058484;28;20184;-71
2021/03/30 05:24:40;;;;;;;9.93;4.60;;;7.40;70.10;;;;;;5071135;28;20512;-72
2021/03/30 05:27:06;;;;;;;10.50;4.83;;;7.40;69.40;;;;;;5058557;28;20453;-71
2021/03/30 05:29:42;;;;;;;11.63;5.17;;;7.40;69.50;;;;;;5070805;28;20924;-71
2021/03/30 05:32:12;;;;;;;10.00;4.97;;;7.40;69.70;;;;;;5066635;28;20484;-71
2021/03/30 05:34:38;;;;;;;14.60;5.10;;;7.50;69.10;;;;;;5064056;28;20814;-71
2021/03/30 05:37:05;;;;;;;16.20;4.97;;;7.50;69.40;;;;;;5070831;28;20419;-73
2021/03/30 05:39:31;;;;;;;9.47;5.20;;;7.60;69.50;;;;;;5070845;28;20476;-71
2021/03/30 05:41:58;;;;;;;14.87;4.90;;;7.60;68.50;;;;;;5070695;28;20552;-71
2021/03/30 05:44:24;;;;;;;9.57;4.87;;;7.60;68.20;;;;;;5073806;28;20422;-72
2021/03/30 05:47:09;;;;;;;9.00;5.30;;;7.60;68.20;;;;;;5074142;28;20912;-71
2021/03/30 05:49:37;;;;;;;14.07;5.77;;;7.60;68.60;;;;;;5070240;28;20428;-71
2021/03/30 05:52:08;;;;;;;12.40;5.40;;;7.60;68.20;;;;;;5070260;28;20470;-70
2021/03/30 05:54:35;;;;;;;15.77;6.23;;;7.50;68.90;;;;;;5068019;28;20432;-72
2021/03/30 05:57:03;;;;;;;11.83;5.87;;;7.60;68.60;;;;;;5070988;28;20806;-71
2021/03/30 05:59:31;;;;;;;11.20;5.80;;;7.60;68.20;;;;;;5065374;28;20924;-71
2021/03/30 06:01:59;;;;;;;19.03;6.70;;;7.70;68.30;;;;;;5057925;28;20979;-72
2021/03/30 06:04:25;;;;;;;15.83;6.13;;;7.80;68.90;;;;;;5069174;28;20421;-71
2021/03/30 06:06:51;;;;;;;15.50;5.70;;;7.80;69.10;;;;;;5067813;28;20418;-71
2021/03/30 06:09:20;;;;;;;14.10;6.47;;;7.90;68.80;;;;;;5069358;28;20433;-70
2021/03/30 06:11:46;;;;;;;16.63;5.90;;;7.90;69.40;;;;;;5070594;28;20195;-71
2021/03/30 06:14:12;;;;;;;11.10;5.77;;;7.90;67.20;;;;;;5069517;28;20877;-71
2021/03/30 06:16:39;;;;;;;14.17;6.37;;;8.00;67.50;;;;;;5068699;28;20517;-71
2021/03/30 06:19:10;;;;;;;14.70;6.00;;;8.10;67.50;;;;;;5069433;28;20199;-72
2021/03/30 06:21:42;;;;;;;13.20;5.90;;;8.30;66.90;;;;;;5070018;28;20440;-71
2021/03/30 06:24:22;;;;;;;16.33;6.60;;;8.50;65.70;;;;;;5069887;28;20418;-70
2021/03/30 06:27:16;;;;;;;12.37;6.17;;;8.50;65.00;;;;;;5070426;28;20422;-72
2021/03/30 06:29:43;;;;;;;12.67;5.67;;;8.40;65.40;;;;;;5085405;28;20519;-72
2021/03/30 06:32:14;;;;;;;12.63;6.93;;;8.20;66.10;;;;;;5071355;28;20422;-71
2021/03/30 06:34:43;;;;;;;12.00;6.90;;;8.20;66.90;;;;;;5070247;28;20438;-73
2021/03/30 06:37:29;;;;;;;26.83;6.70;;;8.20;67.20;;;;;;5070364;28;20429;-72
2021/03/30 06:40:02;;;;;;;15.60;7.67;;;8.20;67.00;;;;;;5069607;28;20461;-71
2021/03/30 06:42:36;;;;;;;13.40;7.20;;;8.20;67.20;;;;;;5068984;28;20521;-70
2021/03/30 06:45:02;;;;;;;13.83;6.60;;;8.30;67.30;;;;;;5069349;28;20499;-72
2021/03/30 06:47:28;;;;;;;18.00;7.40;;;8.30;67.00;;;;;;5070113;28;20867;-72
2021/03/30 06:50:03;;;;;;;16.80;7.10;;;8.40;66.70;;;;;;5069823;28;20493;-70
2021/03/30 06:52:30;;;;;;;14.60;7.10;;;8.50;66.60;;;;;;5070207;28;21173;-71
2021/03/30 06:55:02;;;;;;;11.80;6.50;;;8.50;66.40;;;;;;5070545;28;20517;-72
2021/03/30 06:57:41;;;;;;;13.73;6.27;;;8.60;65.80;;;;;;5072957;28;20433;-72
2021/03/30 07:00:09;;;;;;;11.13;6.47;;;8.60;65.70;;;;;;5062565;28;20510;-70
2021/03/30 07:02:39;;;;;;;13.57;6.63;;;8.70;65.70;;;;;;5070050;28;20767;-71
2021/03/30 07:05:06;;;;;;;14.13;7.70;;;8.90;65.00;;;;;;5068463;28;20545;-71
2021/03/30 07:07:34;;;;;;;17.00;8.03;;;9.00;64.80;;;;;;5071765;28;20430;-72
2021/03/30 07:10:00;;;;;;;16.30;6.53;;;9.00;64.50;;;;;;5073628;28;20802;-72
2021/03/30 07:12:27;;;;;;;14.67;7.30;;;9.10;64.50;;;;;;5073775;28;20414;-71
2021/03/30 07:14:53;;;;;;;16.43;7.17;;;9.10;64.20;;;;;;5070708;28;20441;-72
2021/03/30 07:17:30;;;;;;;12.60;7.17;;;9.30;63.90;;;;;;5060597;28;20963;-72
2021/03/30 07:20:00;;;;;;;12.80;6.63;;;9.50;63.10;;;;;;5073827;28;20297;-72
2021/03/30 07:22:28;;;;;;;13.03;7.53;;;9.60;61.90;;;;;;5073051;28;20429;-72
2021/03/30 07:25:03;;;;;;;12.63;6.23;;;9.70;61.90;;;;;;5075244;28;20448;-73
2021/03/30 07:27:53;;;;;;;13.77;6.73;;;9.80;61.70;;;;;;5077864;28;20413;-72
2021/03/30 07:30:21;;;;;;;11.50;6.27;;;9.90;61.00;;;;;;5073932;28;20426;-73
2021/03/30 07:33:16;;;;;;;16.87;7.10;;;10.00;61.00;;;;;;5070945;28;20426;-72
2021/03/30 07:35:42;;;;;;;17.90;6.80;;;10.00;60.40;;;;;;5067294;28;20569;-72
2021/03/30 07:38:14;;;;;;;14.90;7.00;;;10.10;60.10;;;;;;5074578;28;20426;-71
2021/03/30 07:40:41;;;;;;;18.00;7.47;;;10.30;59.70;;;;;;5074319;28;20466;-72
2021/03/30 07:43:09;;;;;;;15.17;7.37;;;10.30;59.60;;;;;;5073162;28;20760;-71
2021/03/30 07:45:38;;;;;;;15.40;7.40;;;10.50;59.20;;;;;;5071689;28;20924;-71
2021/03/30 07:48:06;;;;;;;44.90;8.50;;;10.70;58.40;;;;;;5073611;28;20426;-71
2021/03/30 07:53:54;;;;;;;21.23;8.57;;;10.90;58.40;;;;;;5074593;28;20453;-72
2021/03/30 07:56:25;;;;;;;19.90;7.83;;;11.00;58.40;;;;;;5072482;28;21025;-72
2021/03/30 07:58:53;;;;;;;15.20;7.83;;;11.20;58.20;;;;;;5070815;28;20515;-71
2021/03/30 08:01:21;;;;;;;23.40;9.40;;;11.30;58.20;;;;;;5060204;28;20429;-71
2021/03/30 08:03:49;;;;;;;21.53;8.53;;;11.30;59.50;;;;;;5072295;28;20433;-73
2021/03/30 08:06:32;;;;;;;19.10;9.13;;;11.40;59.30;;;;;;5079675;28;20438;-72
2021/03/30 08:09:19;;;;;;;15.40;8.67;;;11.60;59.50;;;;;;5073040;28;20426;-71
2021/03/30 08:11:53;;;;;;;15.10;7.60;;;11.70;59.50;;;;;;5072956;28;21064;-72
2021/03/30 08:14:19;;;;;;;20.20;9.23;;;11.80;59.50;;;;;;5074567;28;20426;-73
2021/03/30 08:16:50;;;;;;;19.40;9.00;;;11.90;59.50;;;;;;5072697;28;20429;-72
2021/03/30 08:19:18;;;;;;;16.03;8.90;;;12.10;59.10;;;;;;5067925;28;20208;-71
2021/03/30 08:21:54;;;;;;;20.67;9.17;;;12.20;58.80;;;;;;5067747;28;20775;-72
2021/03/30 08:24:21;;;;;;;13.37;8.70;;;12.30;58.50;;;;;;5072358;28;20478;-71
2021/03/30 08:26:47;;;;;;;19.83;9.13;;;12.50;58.10;;;;;;5073798;28;20429;-72
2021/03/30 08:29:19;;;;;;;18.20;8.77;;;12.60;58.00;;;;;;5070420;28;20431;-72
2021/03/30 08:31:49;;;;;;;18.13;9.47;;;12.60;57.60;;;;;;5073060;28;20460;-71
2021/03/30 08:34:26;;;;;;;22.47;9.40;;;12.70;57.40;;;;;;5073154;28;20427;-73
2021/03/30 08:36:56;;;;;;;17.50;9.00;;;12.80;57.20;;;;;;5073053;28;20425;-72
2021/03/30 08:39:25;;;;;;;16.30;9.20;;;12.90;57.00;;;;;;5072842;28;20862;-72
2021/03/30 08:41:53;;;;;;;18.23;9.00;;;13.00;57.00;;;;;;5072786;28;20503;-72
2021/03/30 08:44:20;;;;;;;14.97;8.20;;;13.00;56.90;;;;;;5071155;28;21057;-72
2021/03/30 08:46:58;;;;;;;18.77;8.53;;;13.20;56.20;;;;;;5072511;28;20445;-70
2021/03/30 08:49:30;;;;;;;18.37;9.23;;;13.20;56.10;;;;;;5073120;28;20483;-73
2021/03/30 08:52:02;;;;;;;15.93;8.33;;;13.40;55.60;;;;;;5072865;28;20447;-72
2021/03/30 08:54:30;;;;;;;16.40;8.13;;;13.60;55.30;;;;;;5062513;28;20479;-72
2021/03/30 08:57:08;;;;;;;19.73;7.80;;;13.70;55.00;;;;;;5073132;28;20513;-72
2021/03/30 08:59:34;;;;;;;20.50;9.10;;;13.80;54.50;;;;;;5067326;28;20496;-72
2021/03/30 09:02:06;;;;;;;13.53;7.90;;;13.90;54.50;;;;;;5062394;28;20525;-73
2021/03/30 09:04:34;;;;;;;18.20;8.13;;;14.00;54.40;;;;;;5060183;28;20422;-71
2021/03/30 09:07:00;;;;;;;16.00;8.20;;;14.10;54.00;;;;;;5071093;28;20449;-71
2021/03/30 09:09:33;;;;;;;14.70;8.50;;;14.20;54.00;;;;;;5075313;28;20421;-72
2021/03/30 09:11:59;;;;;;;17.37;8.83;;;14.30;53.70;;;;;;5075694;28;20426;-71
2021/03/30 09:14:25;;;;;;;14.83;8.23;;;14.50;52.90;;;;;;5077534;28;20488;-73
2021/03/30 09:16:51;;;;;;;12.53;7.20;;;14.70;52.40;;;;;;5080240;28;20423;-71
2021/03/30 09:19:28;;;;;;;14.20;7.47;;;14.80;51.80;;;;;;5079610;28;20461;-72
2021/03/30 09:22:01;;;;;;;27.30;8.70;;;14.90;51.60;;;;;;5079522;28;20433;-72
2021/03/30 09:27:12;;;;;;;17.60;8.43;;;15.30;50.50;;;;;;5075019;28;20510;-73
2021/03/30 09:29:38;;;;;;;13.30;8.40;;;15.40;50.50;;;;;;5076213;28;20849;-71
2021/03/30 09:32:09;;;;;;;16.20;8.70;;;15.40;50.70;;;;;;5072421;28;20462;-72
2021/03/30 09:34:39;;;;;;;13.63;7.53;;;15.60;49.90;;;;;;5073026;28;20430;-73
2021/03/30 09:37:05;;;;;;;19.30;8.20;;;15.70;49.10;;;;;;5071014;28;20422;-72
2021/03/30 09:39:34;;;;;;;20.90;7.60;;;15.80;49.50;;;;;;5072058;28;20488;-73
2021/03/30 09:42:00;;;;;;;13.20;7.70;;;15.90;49.10;;;;;;5080427;28;20512;-71
2021/03/30 09:44:26;;;;;;;17.00;8.13;;;16.10;48.90;;;;;;5069971;28;20464;-71
2021/03/30 09:46:55;;;;;;;27.10;7.43;;;16.30;47.90;;;;;;5069605;28;20188;-72
2021/03/30 09:49:24;;;;;;;18.50;8.23;;;16.40;47.90;;;;;;5066228;28;20574;-71
2021/03/30 09:51:52;;;;;;;13.93;7.27;;;16.50;47.40;;;;;;5062485;28;20477;-72
2021/03/30 09:54:43;;;;;;;13.13;7.53;;;16.60;47.10;;;;;;5069328;28;20430;-71
2021/03/30 09:57:15;;;;;;;19.07;7.97;;;16.70;46.60;;;;;;5070292;28;20522;-72
2021/03/30 09:59:49;;;;;;;13.30;7.20;;;16.90;46.10;;;;;;5064834;28;20465;-72
2021/03/30 10:02:17;;;;;;;20.43;10.27;;;17.00;45.40;;;;;;5065509;28;20448;-73
2021/03/30 10:04:43;;;;;;;24.40;7.93;;;17.10;44.90;;;;;;5071250;28;20451;-71
2021/03/30 10:07:15;;;;;;;17.57;8.47;;;17.20;44.60;;;;;;5068702;28;20438;-72
2021/03/30 10:10:08;;;;;;;16.50;7.73;;;17.40;44.60;;;;;;5072163;28;20650;-72
2021/03/30 10:12:59;;;;;;;10.23;7.60;;;17.50;44.10;;;;;;5071997;28;20426;-72
2021/03/30 10:15:40;;;;;;;13.97;7.23;;;17.70;43.00;;;;;;5068676;28;20465;-72
2021/03/30 10:18:08;;;;;;;22.60;7.40;;;17.90;42.30;;;;;;5069594;28;20429;-72
2021/03/30 10:20:45;;;;;;;12.93;6.80;;;18.00;41.50;;;;;;5069467;28;20687;-72
2021/03/30 10:23:20;;;;;;;14.93;6.83;;;18.10;40.80;;;;;;5069209;28;20451;-71
2021/03/30 10:25:46;;;;;;;15.90;6.30;;;18.30;40.20;;;;;;5058369;28;20458;-72
2021/03/30 10:28:23;;;;;;;16.77;8.03;;;18.40;39.80;;;;;;5069378;28;20517;-72
2021/03/30 10:30:53;;;;;;;13.20;6.67;;;18.60;39.20;;;;;;5073496;28;20432;-71
2021/03/30 10:33:39;;;;;;;14.93;6.80;;;18.70;38.60;;;;;;5073797;28;20428;-72
2021/03/30 10:36:15;;;;;;;12.30;6.70;;;18.80;38.00;;;;;;5073200;28;20529;-73
2021/03/30 10:39:00;;;;;;;14.33;6.80;;;19.00;38.00;;;;;;5074016;28;20426;-72
2021/03/30 10:41:41;;;;;;;14.10;7.40;;;19.10;37.00;;;;;;5074099;28;21012;-72
2021/03/30 10:44:09;;;;;;;16.30;6.87;;;19.10;36.80;;;;;;5073433;28;20879;-72
2021/03/30 10:46:48;;;;;;;15.80;7.30;;;19.30;36.40;;;;;;5071938;28;20993;-70
2021/03/30 10:49:15;;;;;;;12.47;6.43;;;19.50;35.90;;;;;;5073360;28;20401;-72
2021/03/30 10:51:43;;;;;;;9.40;6.57;;;19.80;35.60;;;;;;5068600;28;20941;-71
2021/03/30 10:54:11;;;;;;;13.37;6.13;;;20.20;34.50;;;;;;5070155;28;20960;-72
2021/03/30 10:56:38;;;;;;;10.93;6.27;;;20.50;32.90;;;;;;5072988;28;20434;-72
2021/03/30 10:59:11;;;;;;;12.70;5.23;;;20.90;31.70;;;;;;5070846;28;20539;-72
2021/03/30 11:01:38;;;;;;;11.80;5.23;;;21.30;30.50;;;;;;5062830;28;20427;-73
2021/03/30 11:04:05;;;;;;;9.83;6.13;;;21.60;29.80;;;;;;5072951;28;20452;-71
2021/03/30 11:06:31;;;;;;;11.90;6.00;;;21.90;29.20;;;;;;5072829;28;20499;-71
2021/03/30 11:08:58;;;;;;;8.90;4.97;;;22.20;29.40;;;;;;5070729;28;20431;-72
2021/03/30 11:11:24;;;;;;;10.03;5.53;;;22.50;27.60;;;;;;5075156;28;20556;-73
2021/03/30 11:13:50;;;;;;;10.20;5.60;;;22.50;27.60;;;;;;5074950;28;20460;-72
2021/03/30 11:16:15;;;;;;;12.23;4.47;;;22.60;27.80;;;;;;5072184;28;20209;-70
2021/03/30 11:18:41;;;;;;;17.87;5.30;;;22.60;27.20;;;;;;5073940;28;20430;-72
2021/03/30 11:21:07;;;;;;;8.90;4.43;;;22.80;26.90;;;;;;5073784;28;20266;-72
2021/03/30 11:23:33;;;;;;;10.77;5.17;;;23.10;26.60;;;;;;5071527;28;20667;-72
2021/03/30 11:25:59;;;;;;;9.67;5.30;;;23.00;26.80;;;;;;5061972;28;20208;-71
2021/03/30 11:28:28;;;;;;;12.17;5.20;;;23.00;26.60;;;;;;5067366;28;20569;-71
2021/03/30 11:30:59;;;;;;;9.47;5.30;;;22.90;27.00;;;;;;5063005;28;20185;-71
2021/03/30 11:35:53;;;;;;;8.30;5.30;;;22.50;27.40;;;;;;5071497;28;21135;-71
2021/03/30 11:38:19;;;;;;;6.20;4.47;;;22.60;26.90;;;;;;5072328;28;20177;-71
2021/03/30 11:40:45;;;;;;;9.30;4.53;;;22.70;26.90;;;;;;5071257;28;20463;-72
2021/03/30 11:43:12;;;;;;;9.50;4.50;;;23.00;26.60;;;;;;5072185;28;20182;-72
2021/03/30 11:45:38;;;;;;;7.03;5.40;;;23.30;26.30;;;;;;5070659;28;20942;-72
2021/03/30 11:48:05;;;;;;;8.80;4.20;;;23.70;26.50;;;;;;5072514;28;20511;-70
2021/03/30 11:50:32;;;;;;;7.93;4.70;;;23.90;25.60;;;;;;5072314;28;20426;-72
2021/03/30 11:52:59;;;;;;;10.53;4.60;;;23.90;25.80;;;;;;5071814;28;20443;-72
2021/03/30 11:55:25;;;;;;;10.47;4.63;;;23.90;25.70;;;;;;5070911;28;21030;-71
2021/03/30 11:57:51;;;;;;;11.07;5.20;;;23.90;25.60;;;;;;5071734;28;20460;-71
2021/03/30 12:00:19;;;;;;;7.53;4.67;;;23.60;25.60;;;;;;5059639;28;20560;-71
2021/03/30 12:02:46;;;;;;;7.70;4.27;;;23.30;25.60;;;;;;5071127;28;20425;-71
2021/03/30 12:05:12;;;;;;;9.70;4.57;;;23.40;25.50;;;;;;5066005;28;21168;-71
2021/03/30 12:07:38;;;;;;;8.60;5.00;;;23.40;25.30;;;;;;5069169;28;20931;-72
2021/03/30 12:10:05;;;;;;;14.47;5.70;;;23.50;25.30;;;;;;5072091;28;20578;-72
2021/03/30 12:12:31;;;;;;;8.60;4.50;;;23.50;25.50;;;;;;5071067;28;20198;-70
2021/03/30 12:14:57;;;;;;;10.03;4.33;;;23.60;25.50;;;;;;5074956;28;20435;-72
2021/03/30 12:17:24;;;;;;;7.23;3.90;;;23.60;24.30;;;;;;5064226;28;20476;-72
2021/03/30 12:19:50;;;;;;;8.47;4.07;;;23.50;23.50;;;;;;5075410;28;20495;-70
2021/03/30 12:22:16;;;;;;;6.87;3.67;;;23.70;21.30;;;;;;5074089;28;20484;-73
2021/03/30 12:24:42;;;;;;;4.70;3.47;;;24.10;20.20;;;;;;5064341;28;20957;-72
2021/03/30 12:27:11;;;;;;;6.80;3.70;;;24.40;19.50;;;;;;5078108;28;20188;-71
2021/03/30 12:29:40;;;;;;;5.50;3.17;;;24.70;20.50;;;;;;5077350;28;20198;-72
2021/03/30 12:32:11;;;;;;;6.90;4.30;;;24.80;20.20;;;;;;5071212;28;20957;-73
2021/03/30 12:34:38;;;;;;;7.30;4.03;;;24.70;21.00;;;;;;5068925;28;20985;-73
2021/03/30 12:37:04;;;;;;;8.83;4.80;;;24.60;21.20;;;;;;5069881;28;20468;-72
2021/03/30 12:39:31;;;;;;;5.20;3.80;;;24.30;21.10;;;;;;5071444;28;20458;-72
2021/03/30 12:41:57;;;;;;;12.73;4.90;;;24.10;21.80;;;;;;5071037;28;20446;-72
2021/03/30 12:44:25;;;;;;;11.70;4.20;;;24.30;22.50;;;;;;5070745;28;20503;-72
2021/03/30 12:46:51;;;;;;;4.97;4.03;;;24.40;22.20;;;;;;5071366;28;20461;-71
2021/03/30 12:49:19;;;;;;;6.40;4.33;;;24.50;22.00;;;;;;5072988;28;20431;-72
2021/03/30 12:51:45;;;;;;;8.20;5.60;;;24.70;21.80;;;;;;5073196;28;20509;-71
2021/03/30 12:54:10;;;;;;;8.47;4.90;;;25.00;22.40;;;;;;5072572;28;20574;-71
2021/03/30 12:56:36;;;;;;;7.83;4.40;;;24.80;22.40;;;;;;5070902;28;20216;-71
2021/03/30 12:59:02;;;;;;;8.83;5.00;;;24.70;22.60;;;;;;5070699;28;20672;-71
2021/03/30 13:01:31;;;;;;;8.80;4.63;;;24.60;22.10;;;;;;5087155;28;20778;-71
2021/03/30 13:03:57;;;;;;;11.20;4.57;;;24.50;22.50;;;;;;5071897;28;20460;-71
2021/03/30 13:06:22;;;;;;;8.30;4.00;;;24.60;22.50;;;;;;5074428;28;20858;-72
2021/03/30 13:08:48;;;;;;;10.70;4.57;;;24.50;22.20;;;;;;5076475;28;20702;-72
2021/03/30 13:11:14;;;;;;;6.37;4.40;;;24.60;22.20;;;;;;5073283;28;20190;-72